Time;durP1;ratioP1;P1;durP2;ratioP2;P2;SDS_P1;SDS_P2;PMS_P1;PMS_P2;Temp;Humidity;BMP_temperature;BMP_pressure;BME280_temperature;BME280_humidity;BME280_pressure;Samples;Min_cycle;Max_cycle;Signal;HPM_P1;HPM_P2
2023/12/07 00:00:23;;;;;;;25.80;20.95;;;;;;;;;;5059814;28;20432;-72
2023/12/07 00:02:50;;;;;;;26.73;22.13;;;;;;;;;;5065091;28;20415;-72
2023/12/07 00:05:18;;;;;;;27.75;21.48;;;;;;;;;;5065220;28;20781;-72
2023/12/07 00:07:45;;;;;;;28.73;21.83;;;;;;;;;;5064719;28;20407;-72
2023/12/07 00:10:13;;;;;;;25.92;21.83;;;;;;;;;;5064424;28;20979;-72
2023/12/07 00:12:41;;;;;;;27.30;21.80;;;;;;;;;;5065523;28;20420;-72
2023/12/07 00:15:09;;;;;;;28.75;22.40;;;;;;;;;;5066382;28;20435;-72
2023/12/07 00:17:36;;;;;;;29.60;22.80;;;;;;;;;;5065322;28;20422;-72
2023/12/07 00:20:04;;;;;;;26.45;21.05;;;;;;;;;;5063735;28;20896;-73
2023/12/07 00:22:31;;;;;;;24.35;20.65;;;;;;;;;;5065373;28;20473;-73
2023/12/07 00:24:59;;;;;;;24.95;20.75;;;;;;;;;;5064303;28;20416;-72
2023/12/07 00:27:27;;;;;;;29.70;22.60;;;;;;;;;;5065387;28;20486;-72
2023/12/07 00:29:54;;;;;;;29.92;23.50;;;;;;;;;;5065313;28;20404;-72
2023/12/07 00:32:21;;;;;;;30.42;23.23;;;;;;;;;;5066709;28;20411;-72
2023/12/07 00:34:49;;;;;;;30.00;24.33;;;;;;;;;;5088362;28;20404;-72
2023/12/07 00:37:16;;;;;;;33.30;23.97;;;;;;;;;;5069636;28;20537;-72
2023/12/07 00:39:43;;;;;;;34.65;25.27;;;;;;;;;;5065437;28;20464;-72
2023/12/07 00:42:10;;;;;;;34.30;25.40;;;;;;;;;;5064257;28;20430;-72
2023/12/07 00:44:41;;;;;;;29.40;23.60;;;;;;;;;;5060006;28;20419;-73
2023/12/07 00:47:09;;;;;;;32.93;24.43;;;;;;;;;;5064735;28;20482;-72
2023/12/07 00:49:39;;;;;;;30.90;24.60;;;;;;;;;;5064336;28;20408;-72
2023/12/07 00:52:06;;;;;;;29.20;23.42;;;;;;;;;;5064681;28;20415;-72
2023/12/07 00:54:34;;;;;;;31.48;24.25;;;;;;;;;;5065098;28;21052;-72
2023/12/07 00:57:01;;;;;;;29.98;23.30;;;;;;;;;;5064267;28;20873;-72
2023/12/07 00:59:33;;;;;;;35.65;24.85;;;;;;;;;;5063484;28;21211;-72
2023/12/07 01:02:02;;;;;;;35.17;24.95;;;;;;;;;;5061209;28;20412;-72
2023/12/07 01:04:29;;;;;;;34.13;25.13;;;;;;;;;;5064759;28;20582;-72
2023/12/07 01:06:56;;;;;;;36.38;25.90;;;;;;;;;;5064434;28;20459;-72
2023/12/07 01:09:23;;;;;;;35.63;25.98;;;;;;;;;;5061414;28;20423;-72
2023/12/07 01:11:50;;;;;;;37.60;26.35;;;;;;;;;;5064301;28;20422;-72
2023/12/07 01:14:18;;;;;;;36.77;26.63;;;;;;;;;;5064280;28;20447;-72
2023/12/07 01:16:45;;;;;;;42.92;28.27;;;;;;;;;;5063283;28;20430;-74
2023/12/07 01:19:14;;;;;;;42.47;27.35;;;;;;;;;;5062816;28;20411;-72
2023/12/07 01:21:41;;;;;;;36.60;26.08;;;;;;;;;;5064300;28;20500;-74
2023/12/07 01:24:08;;;;;;;39.77;27.60;;;;;;;;;;5063010;28;20475;-72
2023/12/07 01:26:35;;;;;;;40.05;27.30;;;;;;;;;;5062628;28;20435;-72
2023/12/07 01:29:03;;;;;;;37.85;27.10;;;;;;;;;;5062992;28;20431;-73
2023/12/07 01:31:30;;;;;;;41.40;28.33;;;;;;;;;;5062877;28;20467;-73
2023/12/07 01:33:57;;;;;;;40.30;28.38;;;;;;;;;;5063469;28;20598;-73
2023/12/07 01:36:25;;;;;;;42.05;30.30;;;;;;;;;;5062589;28;20407;-73
2023/12/07 01:38:53;;;;;;;42.45;29.63;;;;;;;;;;5063610;28;20412;-73
2023/12/07 01:41:20;;;;;;;43.05;29.50;;;;;;;;;;5062434;28;21039;-73
2023/12/07 01:43:48;;;;;;;42.50;30.30;;;;;;;;;;5066151;28;20430;-73
2023/12/07 01:46:15;;;;;;;43.17;29.50;;;;;;;;;;5067159;28;20418;-73
2023/12/07 01:48:42;;;;;;;38.88;28.45;;;;;;;;;;5066993;28;20557;-73
2023/12/07 01:51:10;;;;;;;42.72;28.60;;;;;;;;;;5066374;28;20411;-73
2023/12/07 01:53:39;;;;;;;40.40;29.23;;;;;;;;;;5067405;28;20514;-73
2023/12/07 01:56:07;;;;;;;45.72;29.98;;;;;;;;;;5066104;28;20407;-73
2023/12/07 01:58:34;;;;;;;41.55;28.77;;;;;;;;;;5066058;28;20487;-71
2023/12/07 02:01:02;;;;;;;39.50;29.40;;;;;;;;;;5067908;28;20446;-71
2023/12/07 02:03:30;;;;;;;40.97;29.50;;;;;;;;;;5068331;28;20415;-71
2023/12/07 02:05:57;;;;;;;43.25;28.75;;;;;;;;;;5067838;28;20411;-71
2023/12/07 02:08:24;;;;;;;40.53;28.83;;;;;;;;;;5064893;28;20403;-72
2023/12/07 02:10:53;;;;;;;43.10;30.10;;;;;;;;;;5066589;28;20486;-71
2023/12/07 02:13:20;;;;;;;43.03;29.13;;;;;;;;;;5070664;28;20408;-73
2023/12/07 02:15:47;;;;;;;42.33;29.20;;;;;;;;;;5066884;28;20846;-73
2023/12/07 02:18:16;;;;;;;41.53;29.48;;;;;;;;;;5066772;28;20503;-73
2023/12/07 02:20:47;;;;;;;44.88;30.35;;;;;;;;;;5066478;28;20453;-73
2023/12/07 02:23:15;;;;;;;44.55;28.65;;;;;;;;;;5066569;28;20857;-73
2023/12/07 02:25:46;;;;;;;39.47;28.08;;;;;;;;;;5065165;28;20411;-73
2023/12/07 02:28:14;;;;;;;40.20;28.33;;;;;;;;;;5065416;28;20430;-73
2023/12/07 02:30:41;;;;;;;43.00;30.17;;;;;;;;;;5065150;28;20422;-73
2023/12/07 02:33:08;;;;;;;42.40;29.40;;;;;;;;;;5065572;28;20873;-73
2023/12/07 02:35:36;;;;;;;40.65;29.48;;;;;;;;;;5065925;28;20498;-73
2023/12/07 02:38:04;;;;;;;41.50;28.50;;;;;;;;;;5065418;28;20412;-73
2023/12/07 02:40:31;;;;;;;36.25;26.80;;;;;;;;;;5065442;28;20462;-73
2023/12/07 02:42:58;;;;;;;38.13;29.00;;;;;;;;;;5065385;28;20427;-72
2023/12/07 02:45:27;;;;;;;37.17;26.25;;;;;;;;;;5065128;28;20411;-73
2023/12/07 02:47:54;;;;;;;36.55;27.58;;;;;;;;;;5065601;28;20904;-73
2023/12/07 02:50:21;;;;;;;40.70;28.35;;;;;;;;;;5065555;28;20862;-73
2023/12/07 02:52:48;;;;;;;41.15;27.65;;;;;;;;;;5065655;28;20422;-72
2023/12/07 02:55:15;;;;;;;42.70;30.30;;;;;;;;;;5063655;28;20430;-71
2023/12/07 02:57:43;;;;;;;37.75;27.73;;;;;;;;;;5065360;28;20420;-71
2023/12/07 03:00:10;;;;;;;38.55;28.02;;;;;;;;;;5064489;28;20427;-72
2023/12/07 03:02:41;;;;;;;40.87;28.77;;;;;;;;;;5066000;28;20443;-73
2023/12/07 03:05:08;;;;;;;37.85;28.05;;;;;;;;;;5065776;28;20550;-72
2023/12/07 03:07:35;;;;;;;36.53;27.83;;;;;;;;;;5065370;28;20882;-72
2023/12/07 03:10:03;;;;;;;38.55;27.65;;;;;;;;;;5065392;28;20492;-73
2023/12/07 03:12:30;;;;;;;37.22;27.73;;;;;;;;;;5065582;28;20497;-71
2023/12/07 03:14:57;;;;;;;34.00;26.83;;;;;;;;;;5064838;28;20407;-73
2023/12/07 03:17:24;;;;;;;32.58;26.88;;;;;;;;;;5064157;28;20494;-73
2023/12/07 03:19:53;;;;;;;33.85;25.50;;;;;;;;;;5065173;28;20420;-73
2023/12/07 03:22:20;;;;;;;34.28;25.02;;;;;;;;;;5065669;28;20929;-73
2023/12/07 03:24:48;;;;;;;29.45;24.33;;;;;;;;;;5064947;28;21305;-73
2023/12/07 03:27:15;;;;;;;33.30;25.58;;;;;;;;;;5064838;28;20749;-73
2023/12/07 03:29:42;;;;;;;32.38;25.42;;;;;;;;;;5066363;28;20416;-73
2023/12/07 03:32:09;;;;;;;33.65;24.48;;;;;;;;;;5064555;28;20407;-73
2023/12/07 03:34:36;;;;;;;28.07;24.60;;;;;;;;;;5063358;28;20477;-73
2023/12/07 03:37:05;;;;;;;31.50;24.27;;;;;;;;;;5064840;28;20415;-73
2023/12/07 03:39:33;;;;;;;31.02;23.88;;;;;;;;;;5064940;28;20434;-73
2023/12/07 03:42:01;;;;;;;27.45;23.42;;;;;;;;;;5066536;28;20527;-73
2023/12/07 03:44:28;;;;;;;31.00;23.20;;;;;;;;;;5083238;28;20418;-73
2023/12/07 03:46:55;;;;;;;26.65;22.10;;;;;;;;;;5074714;28;20419;-73
2023/12/07 03:49:22;;;;;;;27.67;22.63;;;;;;;;;;5064652;28;20412;-73
2023/12/07 03:51:49;;;;;;;28.20;22.60;;;;;;;;;;5064946;28;20404;-73
2023/12/07 03:54:17;;;;;;;26.45;22.63;;;;;;;;;;5064297;28;20721;-73
2023/12/07 03:56:44;;;;;;;27.17;21.55;;;;;;;;;;5064654;28;20785;-73
2023/12/07 03:59:11;;;;;;;27.23;21.80;;;;;;;;;;5065671;28;20500;-73
2023/12/07 04:01:38;;;;;;;25.45;21.40;;;;;;;;;;5064083;28;20431;-73
2023/12/07 04:04:05;;;;;;;26.00;21.88;;;;;;;;;;5064761;28;20424;-73
2023/12/07 04:06:33;;;;;;;25.97;21.93;;;;;;;;;;5064088;28;20805;-73
2023/12/07 04:09:00;;;;;;;26.20;20.98;;;;;;;;;;5064551;28;20858;-73
2023/12/07 04:11:28;;;;;;;22.40;20.00;;;;;;;;;;5065010;28;20411;-72
2023/12/07 04:13:55;;;;;;;24.67;20.90;;;;;;;;;;5064437;28;20404;-73
2023/12/07 04:16:22;;;;;;;23.48;19.70;;;;;;;;;;5063274;28;20411;-73
2023/12/07 04:18:50;;;;;;;22.35;19.92;;;;;;;;;;5064769;28;20426;-73
2023/12/07 04:21:17;;;;;;;23.52;20.60;;;;;;;;;;5064262;28;20519;-73
2023/12/07 04:23:44;;;;;;;25.60;21.13;;;;;;;;;;5064606;28;20418;-73
2023/12/07 04:26:11;;;;;;;22.85;19.15;;;;;;;;;;5064070;28;20434;-72
2023/12/07 04:28:40;;;;;;;23.73;19.92;;;;;;;;;;5064652;28;20411;-73
2023/12/07 04:31:07;;;;;;;26.17;20.67;;;;;;;;;;5063330;28;20422;-72
2023/12/07 04:33:34;;;;;;;23.77;19.83;;;;;;;;;;5065218;28;20411;-73
2023/12/07 04:36:01;;;;;;;25.05;19.98;;;;;;;;;;5064548;28;20418;-73
2023/12/07 04:38:28;;;;;;;23.30;19.35;;;;;;;;;;5064291;28;20415;-73
2023/12/07 04:40:56;;;;;;;23.88;18.98;;;;;;;;;;5064466;28;20441;-73
2023/12/07 04:43:23;;;;;;;23.35;19.17;;;;;;;;;;5064395;28;20434;-73
2023/12/07 04:45:52;;;;;;;22.42;18.95;;;;;;;;;;5063176;28;20501;-73
2023/12/07 04:48:19;;;;;;;21.88;18.40;;;;;;;;;;5066468;28;20449;-73
2023/12/07 04:50:46;;;;;;;22.15;18.00;;;;;;;;;;5066556;28;20415;-73
2023/12/07 04:53:13;;;;;;;20.60;17.40;;;;;;;;;;5063378;28;20407;-73
2023/12/07 04:55:42;;;;;;;21.77;17.23;;;;;;;;;;5063081;28;20423;-73
2023/12/07 04:58:09;;;;;;;21.38;17.92;;;;;;;;;;5064436;28;20419;-73
2023/12/07 05:00:37;;;;;;;20.25;16.48;;;;;;;;;;5064310;28;20411;-73
2023/12/07 05:03:05;;;;;;;21.90;16.90;;;;;;;;;;5064910;28;20886;-73
2023/12/07 05:05:32;;;;;;;17.08;15.20;;;;;;;;;;5063979;28;20879;-72
2023/12/07 05:07:59;;;;;;;17.38;15.52;;;;;;;;;;5064742;28;20411;-73
2023/12/07 05:10:26;;;;;;;17.40;15.50;;;;;;;;;;5063620;28;22360;-73
2023/12/07 05:12:54;;;;;;;17.40;15.30;;;;;;;;;;5064470;28;20404;-73
2023/12/07 05:15:21;;;;;;;17.98;15.57;;;;;;;;;;5064339;28;20518;-73
2023/12/07 05:17:48;;;;;;;17.70;15.80;;;;;;;;;;5065426;28;20434;-72
2023/12/07 05:20:18;;;;;;;19.20;15.50;;;;;;;;;;5068264;28;20414;-72
2023/12/07 05:22:45;;;;;;;17.05;14.68;;;;;;;;;;5066483;28;20457;-72
2023/12/07 05:25:12;;;;;;;17.27;14.45;;;;;;;;;;5068244;28;20499;-73
2023/12/07 05:27:39;;;;;;;15.47;13.60;;;;;;;;;;5067085;28;20419;-73
2023/12/07 05:30:07;;;;;;;15.18;13.57;;;;;;;;;;5065099;28;20794;-73
2023/12/07 05:32:34;;;;;;;17.30;14.40;;;;;;;;;;5066931;28;21096;-73
2023/12/07 05:35:02;;;;;;;17.00;13.80;;;;;;;;;;5060518;28;20457;-72
2023/12/07 05:37:30;;;;;;;16.58;14.55;;;;;;;;;;5054575;28;20899;-73
2023/12/07 05:39:57;;;;;;;16.77;14.35;;;;;;;;;;5062368;28;20931;-73
2023/12/07 05:42:24;;;;;;;17.15;14.38;;;;;;;;;;5067724;28;20435;-73
2023/12/07 05:44:51;;;;;;;15.13;13.52;;;;;;;;;;5067519;28;20408;-73
2023/12/07 05:47:18;;;;;;;15.40;13.02;;;;;;;;;;5068883;28;20418;-72
2023/12/07 05:49:45;;;;;;;16.67;13.23;;;;;;;;;;5067084;28;20407;-73
2023/12/07 05:52:12;;;;;;;16.40;14.10;;;;;;;;;;5066809;28;20422;-74
2023/12/07 05:54:43;;;;;;;18.85;14.50;;;;;;;;;;5067182;28;20419;-74
2023/12/07 05:57:10;;;;;;;16.40;14.50;;;;;;;;;;5067795;28;20510;-74
2023/12/07 05:59:38;;;;;;;16.87;13.90;;;;;;;;;;5075320;28;20489;-73
2023/12/07 06:02:05;;;;;;;18.88;14.32;;;;;;;;;;5068495;28;20442;-73
2023/12/07 06:04:33;;;;;;;16.73;13.82;;;;;;;;;;5042587;28;20430;-74
2023/12/07 06:07:00;;;;;;;16.60;14.00;;;;;;;;;;5072789;28;20408;-74
2023/12/07 06:09:27;;;;;;;16.23;13.65;;;;;;;;;;5068663;28;20451;-75
2023/12/07 06:11:55;;;;;;;16.77;13.88;;;;;;;;;;5067918;28;20407;-74
2023/12/07 06:14:22;;;;;;;15.38;13.85;;;;;;;;;;5067436;28;20419;-74
2023/12/07 06:16:49;;;;;;;14.73;12.82;;;;;;;;;;5066832;28;20423;-72
2023/12/07 06:19:16;;;;;;;15.73;14.03;;;;;;;;;;5068340;28;20466;-72
2023/12/07 06:21:45;;;;;;;14.70;13.20;;;;;;;;;;5067883;28;20427;-72
2023/12/07 06:24:13;;;;;;;17.83;13.73;;;;;;;;;;5068219;28;20465;-71
2023/12/07 06:26:41;;;;;;;15.60;13.63;;;;;;;;;;5067734;28;21163;-70
2023/12/07 06:29:09;;;;;;;17.02;14.63;;;;;;;;;;5067680;28;20414;-70
2023/12/07 06:31:36;;;;;;;15.25;12.73;;;;;;;;;;5067601;28;20406;-72
2023/12/07 06:34:03;;;;;;;16.02;13.77;;;;;;;;;;5067435;28;20415;-72
2023/12/07 06:36:30;;;;;;;15.30;13.40;;;;;;;;;;5067606;28;20407;-73
2023/12/07 06:38:57;;;;;;;15.35;13.32;;;;;;;;;;5067775;28;20410;-71
2023/12/07 06:41:25;;;;;;;17.25;14.32;;;;;;;;;;5066219;28;20886;-72
2023/12/07 06:43:52;;;;;;;16.92;14.00;;;;;;;;;;5064461;28;20905;-72
2023/12/07 06:46:20;;;;;;;18.35;14.25;;;;;;;;;;5072572;28;20415;-72
2023/12/07 06:48:47;;;;;;;17.17;13.93;;;;;;;;;;5091635;28;20410;-73
2023/12/07 06:51:14;;;;;;;15.18;13.20;;;;;;;;;;5088575;28;20419;-74
2023/12/07 06:53:41;;;;;;;15.82;14.13;;;;;;;;;;5072742;28;20751;-73
2023/12/07 06:56:09;;;;;;;15.77;13.20;;;;;;;;;;5067324;28;20431;-72
2023/12/07 06:58:36;;;;;;;16.38;14.07;;;;;;;;;;5076449;28;20490;-72
2023/12/07 07:01:03;;;;;;;16.80;13.85;;;;;;;;;;5067742;28;20413;-72
2023/12/07 07:03:31;;;;;;;15.95;13.90;;;;;;;;;;5073780;28;20425;-73
2023/12/07 07:05:59;;;;;;;18.10;15.30;;;;;;;;;;5071163;28;20950;-72
2023/12/07 07:08:26;;;;;;;18.50;14.60;;;;;;;;;;5070766;28;20829;-72
2023/12/07 07:10:53;;;;;;;15.88;13.30;;;;;;;;;;5069818;28;20809;-72
2023/12/07 07:13:20;;;;;;;16.15;14.02;;;;;;;;;;5083941;28;20436;-72
2023/12/07 07:15:48;;;;;;;15.95;14.25;;;;;;;;;;5071677;28;20427;-72
2023/12/07 07:18:15;;;;;;;17.93;14.10;;;;;;;;;;5068827;28;20875;-72
2023/12/07 07:20:44;;;;;;;16.30;14.45;;;;;;;;;;5066187;28;20428;-72
2023/12/07 07:23:12;;;;;;;16.45;14.07;;;;;;;;;;5070296;28;20434;-72
2023/12/07 07:25:39;;;;;;;19.10;14.20;;;;;;;;;;5066792;28;20447;-72
2023/12/07 07:28:07;;;;;;;16.90;14.27;;;;;;;;;;5080701;28;20763;-73
2023/12/07 07:30:34;;;;;;;17.15;14.30;;;;;;;;;;5073687;28;20743;-73
2023/12/07 07:33:02;;;;;;;16.45;14.00;;;;;;;;;;5069737;28;20428;-72
2023/12/07 07:35:29;;;;;;;16.97;14.77;;;;;;;;;;5065963;28;20419;-73
2023/12/07 07:37:57;;;;;;;16.55;14.75;;;;;;;;;;5076538;28;20980;-73
2023/12/07 07:40:24;;;;;;;19.13;15.27;;;;;;;;;;5067262;28;20441;-74
2023/12/07 07:42:51;;;;;;;16.85;15.07;;;;;;;;;;5075250;28;20454;-73
2023/12/07 07:45:18;;;;;;;18.20;16.30;;;;;;;;;;5074340;28;20845;-73
2023/12/07 07:47:46;;;;;;;17.10;15.30;;;;;;;;;;5062984;28;20858;-73
2023/12/07 07:50:13;;;;;;;19.00;16.52;;;;;;;;;;5065943;28;20411;-73
2023/12/07 07:52:40;;;;;;;19.00;16.80;;;;;;;;;;5075499;28;20408;-73
2023/12/07 07:55:09;;;;;;;19.50;15.93;;;;;;;;;;5061229;28;20489;-73
2023/12/07 07:57:36;;;;;;;18.15;15.65;;;;;;;;;;5059065;28;20459;-73
2023/12/07 08:00:04;;;;;;;18.80;15.50;;;;;;;;;;5073159;28;20744;-73
2023/12/07 08:02:31;;;;;;;17.52;15.32;;;;;;;;;;5069708;28;20484;-73
2023/12/07 08:04:59;;;;;;;18.08;15.60;;;;;;;;;;5064214;28;20432;-73
2023/12/07 08:07:26;;;;;;;16.80;15.00;;;;;;;;;;5069083;28;20406;-73
2023/12/07 08:09:53;;;;;;;18.80;15.75;;;;;;;;;;5071113;28;20451;-73
2023/12/07 08:12:22;;;;;;;18.73;15.32;;;;;;;;;;5065277;28;20497;-72
2023/12/07 08:14:49;;;;;;;16.30;14.60;;;;;;;;;;5069833;28;20517;-73
2023/12/07 08:17:16;;;;;;;18.30;15.93;;;;;;;;;;5063655;28;20451;-73
2023/12/07 08:19:43;;;;;;;19.17;14.93;;;;;;;;;;5061362;28;20564;-73
2023/12/07 08:22:10;;;;;;;16.45;14.75;;;;;;;;;;5063391;28;20483;-73
2023/12/07 08:24:37;;;;;;;17.77;15.98;;;;;;;;;;5067498;28;20426;-74
2023/12/07 08:27:05;;;;;;;15.88;13.95;;;;;;;;;;5063140;28;20442;-73
2023/12/07 08:29:33;;;;;;;16.35;14.23;;;;;;;;;;5060293;28;20903;-73
2023/12/07 08:32:00;;;;;;;15.88;14.27;;;;;;;;;;5060914;28;20469;-74
2023/12/07 08:34:27;;;;;;;16.20;14.50;;;;;;;;;;5065494;28;20431;-74
2023/12/07 08:36:54;;;;;;;14.90;13.40;;;;;;;;;;5066629;28;20871;-72
2023/12/07 08:39:21;;;;;;;16.38;14.25;;;;;;;;;;5065420;28;20412;-72
2023/12/07 08:41:48;;;;;;;15.52;13.65;;;;;;;;;;5071058;28;20415;-72
2023/12/07 08:44:16;;;;;;;15.95;14.20;;;;;;;;;;5069551;28;20488;-73
2023/12/07 08:46:45;;;;;;;15.30;13.70;;;;;;;;;;5067604;28;20435;-73
2023/12/07 08:49:12;;;;;;;14.70;13.20;;;;;;;;;;5069850;28;20466;-73
2023/12/07 08:51:39;;;;;;;14.43;12.93;;;;;;;;;;5067926;28;20431;-72
2023/12/07 08:54:06;;;;;;;14.82;13.30;;;;;;;;;;5064495;28;20431;-73
2023/12/07 08:56:33;;;;;;;13.35;12.05;;;;;;;;;;5063213;28;20708;-72
2023/12/07 08:59:00;;;;;;;13.63;12.27;;;;;;;;;;5065126;28;20419;-74
2023/12/07 09:01:27;;;;;;;14.48;12.98;;;;;;;;;;5071797;28;20526;-72
2023/12/07 09:03:56;;;;;;;13.52;12.23;;;;;;;;;;5064145;28;20507;-73
2023/12/07 09:06:23;;;;;;;14.15;12.73;;;;;;;;;;5080185;28;20532;-73
2023/12/07 09:08:50;;;;;;;14.00;12.50;;;;;;;;;;5064417;28;20428;-73
2023/12/07 09:11:17;;;;;;;14.25;12.85;;;;;;;;;;5072512;28;20449;-73
2023/12/07 09:13:44;;;;;;;13.73;12.32;;;;;;;;;;5071185;28;20429;-72
2023/12/07 09:16:11;;;;;;;14.25;12.68;;;;;;;;;;5062025;28;20454;-72
2023/12/07 09:18:38;;;;;;;14.70;13.10;;;;;;;;;;5059566;28;20402;-72
2023/12/07 09:21:07;;;;;;;14.77;11.90;;;;;;;;;;5064086;28;20434;-72
2023/12/07 09:23:34;;;;;;;13.85;12.45;;;;;;;;;;5058880;28;20571;-72
2023/12/07 09:26:03;;;;;;;13.70;12.30;;;;;;;;;;5071682;28;20967;-72
2023/12/07 09:28:30;;;;;;;14.00;12.27;;;;;;;;;;5069760;28;20550;-73
2023/12/07 09:30:57;;;;;;;14.10;12.60;;;;;;;;;;5064519;28;20488;-71
2023/12/07 09:33:24;;;;;;;13.43;12.10;;;;;;;;;;5075949;28;20419;-71
2023/12/07 09:35:51;;;;;;;14.63;12.75;;;;;;;;;;5068788;28;20416;-71
2023/12/07 09:38:19;;;;;;;14.68;13.18;;;;;;;;;;5073246;28;20427;-71
2023/12/07 09:40:47;;;;;;;15.15;13.65;;;;;;;;;;5068608;28;20757;-72
2023/12/07 09:43:14;;;;;;;14.10;12.70;;;;;;;;;;5075480;28;20497;-62
2023/12/07 09:45:41;;;;;;;14.93;13.40;;;;;;;;;;5067303;28;20839;-66
2023/12/07 09:48:09;;;;;;;14.02;12.55;;;;;;;;;;5080109;28;20767;-62
2023/12/07 09:50:37;;;;;;;13.63;12.32;;;;;;;;;;5074968;28;20432;-62
2023/12/07 09:53:04;;;;;;;13.75;12.35;;;;;;;;;;5069586;28;20468;-63
2023/12/07 09:55:33;;;;;;;14.90;12.80;;;;;;;;;;5062536;28;21029;-63
2023/12/07 09:58:00;;;;;;;13.67;12.33;;;;;;;;;;5057892;28;20427;-71
2023/12/07 10:00:27;;;;;;;13.90;12.50;;;;;;;;;;5064579;28;20517;-69
2023/12/07 10:02:54;;;;;;;14.57;12.40;;;;;;;;;;5090818;28;20421;-70
2023/12/07 10:05:21;;;;;;;13.90;12.40;;;;;;;;;;5074625;28;20423;-68
2023/12/07 10:07:48;;;;;;;13.57;12.18;;;;;;;;;;5067060;28;20439;-68
2023/12/07 10:10:16;;;;;;;13.65;12.25;;;;;;;;;;5067663;28;20412;-69
2023/12/07 10:12:48;;;;;;;13.00;11.70;;;;;;;;;;5077326;28;20413;-68
2023/12/07 10:15:15;;;;;;;13.45;12.15;;;;;;;;;;5082074;28;20428;-69
2023/12/07 10:17:47;;;;;;;13.10;11.70;;;;;;;;;;5076126;28;20421;-69
2023/12/07 10:20:15;;;;;;;12.30;11.10;;;;;;;;;;5077825;28;20835;-68
2023/12/07 10:22:42;;;;;;;13.60;12.30;;;;;;;;;;5066725;28;20427;-69
2023/12/07 10:25:11;;;;;;;13.45;11.30;;;;;;;;;;5065426;28;20473;-69
2023/12/07 10:27:38;;;;;;;12.13;11.02;;;;;;;;;;5078486;28;20409;-68
2023/12/07 10:30:07;;;;;;;12.45;11.23;;;;;;;;;;5072110;28;20419;-68
2023/12/07 10:32:38;;;;;;;12.52;11.18;;;;;;;;;;5067412;28;20504;-69
2023/12/07 10:35:07;;;;;;;12.00;10.90;;;;;;;;;;5078166;28;20793;-70
2023/12/07 10:37:34;;;;;;;13.55;11.40;;;;;;;;;;5072423;28;20466;-68
2023/12/07 10:40:01;;;;;;;14.03;12.07;;;;;;;;;;5066926;28;20430;-69
2023/12/07 10:42:32;;;;;;;13.13;11.68;;;;;;;;;;5076485;28;20416;-69
2023/12/07 10:45:01;;;;;;;13.85;11.50;;;;;;;;;;5080640;28;20436;-70
2023/12/07 10:47:30;;;;;;;11.55;10.40;;;;;;;;;;5069355;28;20900;-69
2023/12/07 10:49:58;;;;;;;11.82;10.63;;;;;;;;;;5078338;28;20409;-68
2023/12/07 10:52:26;;;;;;;12.25;11.05;;;;;;;;;;5040977;28;20495;-72
2023/12/07 10:54:56;;;;;;;11.68;10.48;;;;;;;;;;5057408;28;20428;-68
2023/12/07 10:57:24;;;;;;;11.57;10.48;;;;;;;;;;5067043;28;20469;-67
2023/12/07 10:59:52;;;;;;;11.05;10.05;;;;;;;;;;5067440;28;20794;-66
2023/12/07 11:02:20;;;;;;;10.10;9.10;;;;;;;;;;5073202;28;20415;-66
2023/12/07 11:04:49;;;;;;;10.57;9.63;;;;;;;;;;5078307;28;20718;-70
2023/12/07 11:07:19;;;;;;;10.57;9.57;;;;;;;;;;5065939;28;20431;-68
2023/12/07 11:09:49;;;;;;;10.43;9.43;;;;;;;;;;5065806;28;20447;-68
2023/12/07 11:12:20;;;;;;;10.23;9.23;;;;;;;;;;5070625;28;20469;-67
2023/12/07 11:14:47;;;;;;;10.20;9.20;;;;;;;;;;5083316;28;20422;-67
2023/12/07 11:17:16;;;;;;;10.00;9.10;;;;;;;;;;5061324;28;20907;-69
2023/12/07 11:19:52;;;;;;;10.20;9.20;;;;;;;;;;5077812;28;20479;-68
2023/12/07 11:22:19;;;;;;;10.73;9.70;;;;;;;;;;5081041;28;20438;-69
2023/12/07 11:24:53;;;;;;;11.30;10.20;;;;;;;;;;5066522;28;20881;-68
2023/12/07 11:27:20;;;;;;;11.88;10.75;;;;;;;;;;5075181;28;20418;-68
2023/12/07 11:29:48;;;;;;;12.50;11.30;;;;;;;;;;5077422;28;20416;-69
2023/12/07 11:32:15;;;;;;;12.87;10.97;;;;;;;;;;5072310;28;20459;-70
2023/12/07 11:34:42;;;;;;;12.82;10.90;;;;;;;;;;5071909;28;20474;-68
2023/12/07 11:37:12;;;;;;;11.75;10.65;;;;;;;;;;5075131;28;20774;-68
2023/12/07 11:39:39;;;;;;;11.60;10.40;;;;;;;;;;5066908;28;20419;-68
2023/12/07 11:42:08;;;;;;;11.60;10.50;;;;;;;;;;5066884;28;20411;-68
2023/12/07 11:44:36;;;;;;;11.40;10.20;;;;;;;;;;5068968;28;20891;-68
2023/12/07 11:47:03;;;;;;;11.17;10.07;;;;;;;;;;5071052;28;20920;-68
2023/12/07 11:49:31;;;;;;;10.90;9.82;;;;;;;;;;5082730;28;20406;-67
2023/12/07 11:51:58;;;;;;;10.82;9.40;;;;;;;;;;5067949;28;20447;-70
2023/12/07 11:54:27;;;;;;;10.50;9.50;;;;;;;;;;5066061;28;20428;-70
2023/12/07 11:56:54;;;;;;;10.75;9.65;;;;;;;;;;5069148;28;20417;-70
2023/12/07 11:59:22;;;;;;;10.73;9.70;;;;;;;;;;5078879;28;20420;-71
2023/12/07 12:01:49;;;;;;;10.63;9.63;;;;;;;;;;5083976;28;20864;-71
2023/12/07 12:04:17;;;;;;;10.80;9.50;;;;;;;;;;5077901;28;20801;-71
2023/12/07 12:06:44;;;;;;;10.35;9.25;;;;;;;;;;5070223;28;20435;-68
2023/12/07 12:09:13;;;;;;;10.40;9.40;;;;;;;;;;5066676;28;20411;-71
2023/12/07 12:11:47;;;;;;;9.65;8.75;;;;;;;;;;5073145;28;20461;-71
2023/12/07 12:14:15;;;;;;;10.40;9.40;;;;;;;;;;5063387;28;20427;-69
2023/12/07 12:16:42;;;;;;;11.23;8.85;;;;;;;;;;5071130;28;20409;-71
2023/12/07 12:19:09;;;;;;;9.50;8.60;;;;;;;;;;5075491;28;20411;-69
2023/12/07 12:21:38;;;;;;;9.50;8.60;;;;;;;;;;5064713;28;21041;-69
2023/12/07 12:24:05;;;;;;;9.50;8.70;;;;;;;;;;5066213;28;20505;-69
2023/12/07 12:26:32;;;;;;;9.57;8.60;;;;;;;;;;5061800;28;20439;-69
2023/12/07 12:29:01;;;;;;;9.40;8.50;;;;;;;;;;5069269;28;20436;-69
2023/12/07 12:31:28;;;;;;;9.35;8.40;;;;;;;;;;5075150;28;20435;-69
2023/12/07 12:33:55;;;;;;;8.80;8.00;;;;;;;;;;5077185;28;20406;-70
2023/12/07 12:36:23;;;;;;;9.00;8.10;;;;;;;;;;5076068;28;20439;-69
2023/12/07 12:38:50;;;;;;;9.32;8.32;;;;;;;;;;5064928;28;20468;-71
2023/12/07 12:41:19;;;;;;;8.90;8.00;;;;;;;;;;5073449;28;20504;-72
2023/12/07 12:43:47;;;;;;;9.15;8.25;;;;;;;;;;5072077;28;20435;-69
2023/12/07 12:46:16;;;;;;;9.00;8.20;;;;;;;;;;5072393;28;20486;-69
2023/12/07 12:48:56;;;;;;;8.73;7.82;;;;;;;;;;5076592;28;20421;-74
2023/12/07 12:51:25;;;;;;;9.63;8.25;;;;;;;;;;5062307;28;20876;-67
2023/12/07 12:53:52;;;;;;;8.90;8.10;;;;;;;;;;5063807;28;20428;-68
2023/12/07 12:56:21;;;;;;;8.90;8.10;;;;;;;;;;5065007;28;20432;-68
2023/12/07 12:58:48;;;;;;;10.10;8.68;;;;;;;;;;5066407;28;20427;-69
2023/12/07 13:01:18;;;;;;;7.93;7.13;;;;;;;;;;5065277;28;20423;-68
2023/12/07 13:03:46;;;;;;;9.20;8.20;;;;;;;;;;5063246;28;20438;-67
2023/12/07 13:06:14;;;;;;;8.20;7.40;;;;;;;;;;5063759;28;20499;-67
2023/12/07 13:08:41;;;;;;;8.40;7.60;;;;;;;;;;5064185;28;20435;-67
2023/12/07 13:11:08;;;;;;;8.40;7.60;;;;;;;;;;5069159;28;20410;-67
2023/12/07 13:13:35;;;;;;;8.40;7.70;;;;;;;;;;5069201;28;20436;-67
2023/12/07 13:16:02;;;;;;;8.20;7.50;;;;;;;;;;5063767;28;20412;-67
2023/12/07 13:18:31;;;;;;;8.25;7.47;;;;;;;;;;5066530;28;20413;-67
2023/12/07 13:20:59;;;;;;;8.45;7.63;;;;;;;;;;5065944;28;20439;-67
2023/12/07 13:23:26;;;;;;;8.05;7.35;;;;;;;;;;5066655;28;20427;-67
2023/12/07 13:25:54;;;;;;;8.55;7.75;;;;;;;;;;5069598;28;20444;-67
2023/12/07 13:28:22;;;;;;;8.82;7.93;;;;;;;;;;5065767;28;20422;-68
2023/12/07 13:30:49;;;;;;;10.50;8.80;;;;;;;;;;5063877;28;20897;-69
2023/12/07 13:33:16;;;;;;;8.98;8.00;;;;;;;;;;5071501;28;20411;-68
2023/12/07 13:35:44;;;;;;;8.77;7.88;;;;;;;;;;5069212;28;20430;-67
2023/12/07 13:38:12;;;;;;;8.40;7.60;;;;;;;;;;5064467;28;20494;-68
2023/12/07 13:40:39;;;;;;;9.00;7.57;;;;;;;;;;5074798;28;20412;-68
2023/12/07 13:43:06;;;;;;;7.55;6.85;;;;;;;;;;5084203;28;20456;-68
2023/12/07 13:45:33;;;;;;;9.95;8.00;;;;;;;;;;5076334;28;20438;-67
2023/12/07 13:48:00;;;;;;;8.68;7.47;;;;;;;;;;5063751;28;20415;-68
2023/12/07 13:50:29;;;;;;;8.90;8.05;;;;;;;;;;5064672;28;20411;-68
2023/12/07 13:52:57;;;;;;;8.88;7.97;;;;;;;;;;5062310;28;20796;-68
2023/12/07 13:55:24;;;;;;;9.10;8.10;;;;;;;;;;5071632;28;20895;-69
2023/12/07 13:57:52;;;;;;;9.00;7.78;;;;;;;;;;5062150;28;20415;-69
2023/12/07 14:00:20;;;;;;;8.30;7.60;;;;;;;;;;5068006;28;20427;-69
2023/12/07 14:02:47;;;;;;;9.52;8.52;;;;;;;;;;5065651;28;20441;-70
2023/12/07 14:05:14;;;;;;;9.65;8.65;;;;;;;;;;5062745;28;20505;-70
2023/12/07 14:07:41;;;;;;;8.80;7.38;;;;;;;;;;5068101;28;20472;-70
2023/12/07 14:10:10;;;;;;;8.00;7.20;;;;;;;;;;5066247;28;20432;-70
2023/12/07 14:12:37;;;;;;;9.00;8.10;;;;;;;;;;5062611;28;20419;-69
2023/12/07 14:15:04;;;;;;;8.13;7.32;;;;;;;;;;5065717;28;20412;-70
2023/12/07 14:17:37;;;;;;;8.90;7.60;;;;;;;;;;5065867;28;20431;-70
2023/12/07 14:20:04;;;;;;;8.55;7.35;;;;;;;;;;5066858;28;20607;-67
2023/12/07 14:22:31;;;;;;;8.63;7.82;;;;;;;;;;5065464;28;20424;-66